createdAt,value
2023-05-20T00:01:44.039Z,5.70
2023-05-20T00:06:07.894Z,6.00
2023-05-20T00:10:28.289Z,5.90
2023-05-20T00:14:47.384Z,6.30
2023-05-20T00:19:05.651Z,5.97
2023-05-20T00:23:25.491Z,6.10
2023-05-20T00:27:44.774Z,5.60
2023-05-20T00:32:03.530Z,6.07
2023-05-20T00:36:20.816Z,5.95
2023-05-20T00:40:43.559Z,6.13
2023-05-20T00:45:09.834Z,5.90
2023-05-20T00:49:29.756Z,6.55
2023-05-20T00:53:48.840Z,5.80
2023-05-20T00:58:09.094Z,5.80
2023-05-20T01:02:28.337Z,5.70
2023-05-20T01:06:47.987Z,6.20
2023-05-20T01:11:11.547Z,6.68
2023-05-20T01:15:33.116Z,6.87
2023-05-20T01:19:53.919Z,6.22
2023-05-20T01:24:17.867Z,6.40
2023-05-20T01:28:43.646Z,5.90
2023-05-20T01:33:07.342Z,6.07
2023-05-20T01:37:26.910Z,6.15
2023-05-20T01:41:52.114Z,6.37
2023-05-20T01:46:12.524Z,6.60
2023-05-20T01:50:35.572Z,6.80
2023-05-20T01:54:59.436Z,6.40
2023-05-20T01:59:19.195Z,5.43
2023-05-20T02:03:38.648Z,6.50
2023-05-20T02:07:56.792Z,6.88
2023-05-20T02:12:17.425Z,6.73
2023-05-20T02:16:37.559Z,6.57
2023-05-20T02:20:57.132Z,7.30
2023-05-20T02:25:21.030Z,6.20
2023-05-20T02:29:39.639Z,8.70
2023-05-20T02:33:58.939Z,8.57
2023-05-20T02:38:18.752Z,8.45
2023-05-20T02:42:39.665Z,9.03
2023-05-20T02:47:00.859Z,9.15
2023-05-20T02:51:20.525Z,8.13
2023-05-20T02:55:41.615Z,8.67
2023-05-20T03:00:01.126Z,9.20
2023-05-20T03:04:21.775Z,9.13
2023-05-20T03:08:42.823Z,8.67
2023-05-20T03:13:01.378Z,9.30
2023-05-20T03:17:19.609Z,9.57
2023-05-20T03:21:37.472Z,9.85
2023-05-20T03:25:57.094Z,9.67
2023-05-20T03:30:16.929Z,11.40
2023-05-20T03:34:34.842Z,9.98
2023-05-20T03:38:56.041Z,10.33
2023-05-20T03:43:15.282Z,10.23
2023-05-20T03:47:35.516Z,10.38
2023-05-20T03:51:53.070Z,9.40
2023-05-20T03:56:11.662Z,9.55
2023-05-20T04:00:34.263Z,9.68
2023-05-20T04:04:53.623Z,9.05
2023-05-20T04:09:12.019Z,8.80
2023-05-20T04:13:29.527Z,9.35
2023-05-20T04:17:50.706Z,9.02
2023-05-20T04:22:08.678Z,8.13
2023-05-20T04:26:30.144Z,9.32
2023-05-20T04:30:48.134Z,9.35
2023-05-20T04:35:11.969Z,7.63
2023-05-20T04:39:33.125Z,9.40
2023-05-20T04:43:51.594Z,9.35
2023-05-20T04:48:09.651Z,9.30
2023-05-20T04:52:28.742Z,9.13
2023-05-20T04:56:48.546Z,9.57
2023-05-20T05:01:06.959Z,8.85
2023-05-20T05:05:24.901Z,9.53
2023-05-20T05:09:47.191Z,9.20
2023-05-20T05:14:07.285Z,9.70
2023-05-20T05:18:28.448Z,9.57
2023-05-20T05:22:46.301Z,9.48
2023-05-20T05:27:08.690Z,9.98
2023-05-20T05:31:28.700Z,9.27
2023-05-20T05:35:46.512Z,8.70
2023-05-20T05:40:04.888Z,8.68
2023-05-20T05:44:24.061Z,8.95
2023-05-20T05:48:48.876Z,8.17
2023-05-20T05:53:08.111Z,8.63
2023-05-20T05:57:29.564Z,8.75
2023-05-20T06:01:48.938Z,9.00
2023-05-20T06:06:08.610Z,8.45
2023-05-20T06:10:26.358Z,6.95
2023-05-20T06:14:44.252Z,10.18
2023-05-20T06:19:05.502Z,8.90
2023-05-20T06:23:23.744Z,8.00
2023-05-20T06:27:50.973Z,9.40
2023-05-20T06:32:12.030Z,9.10
2023-05-20T06:36:37.463Z,9.25
2023-05-20T06:40:57.235Z,10.23
2023-05-20T06:45:15.386Z,9.03
2023-05-20T06:49:39.384Z,8.73
2023-05-20T06:53:58.835Z,7.53
2023-05-20T06:58:18.636Z,9.82
2023-05-20T07:02:36.597Z,9.40
2023-05-20T07:06:54.783Z,10.43
2023-05-20T07:11:14.247Z,9.60
2023-05-20T07:15:33.985Z,10.23
2023-05-20T07:19:52.225Z,9.27
2023-05-20T07:24:09.962Z,11.80
2023-05-20T07:28:29.504Z,10.73
2023-05-20T07:32:49.274Z,11.55
2023-05-20T07:37:07.310Z,10.10
2023-05-20T07:41:25.286Z,11.05
2023-05-20T07:45:44.828Z,11.00
2023-05-20T07:50:04.554Z,10.05
2023-05-20T07:54:25.968Z,10.18
2023-05-20T07:58:44.207Z,11.10
2023-05-20T08:03:03.184Z,10.27
2023-05-20T08:07:32.133Z,9.32
2023-05-20T08:11:50.199Z,8.13
2023-05-20T08:16:08.519Z,10.13
2023-05-20T08:20:27.828Z,10.43
2023-05-20T08:24:47.493Z,10.00
2023-05-20T08:29:06.156Z,8.63
2023-05-20T08:33:27.177Z,9.40
2023-05-20T08:37:46.854Z,9.63
2023-05-20T08:42:07.061Z,10.53
2023-05-20T08:46:27.276Z,9.27
2023-05-20T08:50:52.026Z,9.70
2023-05-20T08:55:13.298Z,11.17
2023-05-20T08:59:33.835Z,10.15
2023-05-20T09:03:51.668Z,9.65
2023-05-20T09:08:10.381Z,9.70
2023-05-20T09:12:29.271Z,10.30
2023-05-20T09:16:50.701Z,9.88
2023-05-20T09:21:11.788Z,10.50
2023-05-20T09:25:31.213Z,11.10
2023-05-20T09:29:50.647Z,11.02
2023-05-20T09:34:10.578Z,10.50
2023-05-20T09:38:28.299Z,11.93
2023-05-20T09:42:54.124Z,10.95
2023-05-20T09:47:15.554Z,11.40
2023-05-20T09:51:35.507Z,12.10
2023-05-20T09:55:53.506Z,10.67
2023-05-20T10:00:13.737Z,11.30
2023-05-20T10:04:38.355Z,10.68
2023-05-20T10:09:08.671Z,10.73
2023-05-20T10:13:39.973Z,9.73
2023-05-20T10:18:08.521Z,8.80
2023-05-20T10:22:32.628Z,10.30
2023-05-20T10:26:56.900Z,10.02
2023-05-20T10:31:20.255Z,10.50
2023-05-20T10:35:49.319Z,9.73
2023-05-20T10:40:14.000Z,9.40
2023-05-20T10:44:42.667Z,8.88
2023-05-20T10:49:03.730Z,9.77
2023-05-20T10:53:33.447Z,9.70
2023-05-20T10:57:57.838Z,9.50
2023-05-20T11:02:18.421Z,7.68
2023-05-20T11:06:38.243Z,9.47
2023-05-20T11:10:58.630Z,9.70
2023-05-20T11:15:18.989Z,8.65
2023-05-20T11:19:38.823Z,9.95
2023-05-20T11:23:56.644Z,9.53
2023-05-20T11:28:15.185Z,9.80
2023-05-20T11:32:34.248Z,9.18
2023-05-20T11:36:58.594Z,8.33
2023-05-20T11:41:18.184Z,10.40
2023-05-20T11:45:43.151Z,8.13
2023-05-20T11:50:11.921Z,10.20
2023-05-20T11:54:30.660Z,10.40
2023-05-20T11:58:48.862Z,10.02
2023-05-20T12:03:06.766Z,10.63
2023-05-20T12:07:26.862Z,10.37
2023-05-20T12:11:46.155Z,9.70
2023-05-20T12:16:05.845Z,9.30
2023-05-20T12:20:26.244Z,9.03
2023-05-20T12:24:48.038Z,9.50
2023-05-20T12:29:07.901Z,9.68
2023-05-20T12:33:25.388Z,9.53
2023-05-20T12:37:44.750Z,10.27
2023-05-20T12:42:06.203Z,9.73
2023-05-20T12:46:26.195Z,10.05
2023-05-20T12:50:44.125Z,9.33
2023-05-20T12:55:01.933Z,10.23
2023-05-20T12:59:21.308Z,10.55
2023-05-20T13:03:41.729Z,10.73
2023-05-20T13:08:02.275Z,10.05
2023-05-20T13:12:20.952Z,10.18
2023-05-20T13:16:40.232Z,9.63
2023-05-20T13:20:59.413Z,10.90
2023-05-20T13:25:17.874Z,10.40
2023-05-20T13:29:35.716Z,10.27
2023-05-20T13:33:56.192Z,10.70
2023-05-20T13:38:19.781Z,10.05
2023-05-20T13:42:40.465Z,10.55
2023-05-20T13:47:01.200Z,9.83
2023-05-20T13:51:23.503Z,10.45
2023-05-20T13:55:42.647Z,9.73
2023-05-20T14:00:00.477Z,10.57
2023-05-20T14:04:18.502Z,9.75
2023-05-20T14:08:38.192Z,10.18
2023-05-20T14:13:02.189Z,9.40
2023-05-20T14:17:24.997Z,9.80
2023-05-20T14:21:43.230Z,9.57
2023-05-20T14:26:03.868Z,8.73
2023-05-20T14:30:22.551Z,9.43
2023-05-20T14:34:40.374Z,8.85
2023-05-20T14:38:58.217Z,9.15
2023-05-20T14:43:17.815Z,8.90
2023-05-20T14:47:40.208Z,9.10
2023-05-20T14:52:01.875Z,8.32
2023-05-20T14:56:19.907Z,8.90
2023-05-20T15:00:39.781Z,8.77
2023-05-20T15:04:59.571Z,8.68
2023-05-20T15:09:17.157Z,9.73
2023-05-20T15:13:35.140Z,9.20
2023-05-20T15:17:55.552Z,8.00
2023-05-20T15:22:14.627Z,8.30
2023-05-20T15:26:32.977Z,8.80
2023-05-20T15:30:55.789Z,8.00
2023-05-20T15:35:16.214Z,8.00
2023-05-20T15:39:39.819Z,7.82
2023-05-20T15:43:59.763Z,7.47
2023-05-20T15:48:18.129Z,7.43
2023-05-20T15:52:37.590Z,8.60
2023-05-20T15:56:59.757Z,8.33
2023-05-20T16:01:18.540Z,8.25
2023-05-20T16:05:36.692Z,9.23
2023-05-20T16:09:55.797Z,9.03
2023-05-20T16:14:16.138Z,9.18
2023-05-20T16:18:39.575Z,9.52
2023-05-20T16:22:57.703Z,9.23
2023-05-20T16:27:17.248Z,8.87
2023-05-20T16:31:37.269Z,9.18
2023-05-20T16:35:56.255Z,8.65
2023-05-20T16:40:17.309Z,8.30
2023-05-20T16:44:39.677Z,8.82
2023-05-20T16:48:58.506Z,9.07
2023-05-20T16:53:16.677Z,9.13
2023-05-20T16:57:34.620Z,9.52
2023-05-20T17:01:53.847Z,10.05
2023-05-20T17:06:13.675Z,9.23
2023-05-20T17:10:31.884Z,7.67
2023-05-20T17:14:51.282Z,9.75
2023-05-20T17:19:12.411Z,8.93
2023-05-20T17:23:31.866Z,10.20
2023-05-20T17:27:50.427Z,10.20
2023-05-20T17:32:08.809Z,10.07
2023-05-20T17:36:28.325Z,10.30
2023-05-20T17:40:47.362Z,10.20
2023-05-20T17:45:06.038Z,11.13
2023-05-20T17:49:23.331Z,11.30
2023-05-20T17:53:42.785Z,10.30
2023-05-20T17:58:02.463Z,11.27
2023-05-20T18:02:21.033Z,11.70
2023-05-20T18:06:43.084Z,11.17
2023-05-20T18:11:04.274Z,11.35
2023-05-20T18:15:24.018Z,11.32
2023-05-20T18:19:42.202Z,12.00
2023-05-20T18:23:59.997Z,11.20
2023-05-20T18:28:19.502Z,12.18
2023-05-20T18:32:39.540Z,11.75
2023-05-20T18:36:57.682Z,12.23
2023-05-20T18:41:15.231Z,12.80
2023-05-20T18:45:34.950Z,11.93
2023-05-20T18:49:55.690Z,11.93
2023-05-20T18:54:15.635Z,12.48
2023-05-20T18:58:33.540Z,11.65
2023-05-20T19:02:53.098Z,12.33
2023-05-20T19:07:12.772Z,11.20
2023-05-20T19:11:31.223Z,12.23
2023-05-20T19:15:49.066Z,12.27
2023-05-20T19:20:10.572Z,12.53
2023-05-20T19:24:29.026Z,12.95
2023-05-20T19:28:46.434Z,12.27
2023-05-20T19:33:05.665Z,12.20
2023-05-20T19:37:26.803Z,12.07
2023-05-20T19:41:46.478Z,11.98
2023-05-20T19:46:04.570Z,12.00
2023-05-20T19:50:22.900Z,12.18
2023-05-20T19:54:43.018Z,12.15
2023-05-20T19:59:02.190Z,11.90
2023-05-20T20:03:19.911Z,12.23
2023-05-20T20:07:37.982Z,12.77
2023-05-20T20:11:57.214Z,13.00
2023-05-20T20:16:17.500Z,12.50
2023-05-20T20:20:40.163Z,11.98
2023-05-20T20:24:59.255Z,14.43
2023-05-20T20:29:18.854Z,13.43
2023-05-20T20:33:38.457Z,13.15
2023-05-20T20:37:56.699Z,12.68
2023-05-20T20:42:14.877Z,13.07
2023-05-20T20:46:34.561Z,13.30
2023-05-20T20:50:54.151Z,12.93
2023-05-20T20:55:11.914Z,13.05
2023-05-20T20:59:30.324Z,13.27
2023-05-20T21:03:49.642Z,13.73
2023-05-20T21:08:10.228Z,13.55
2023-05-20T21:12:30.308Z,13.63
2023-05-20T21:16:48.361Z,14.07
2023-05-20T21:21:12.093Z,13.52
2023-05-20T21:25:30.605Z,14.80
2023-05-20T21:29:50.717Z,14.27
2023-05-20T21:34:09.747Z,13.90
2023-05-20T21:38:29.147Z,13.18
2023-05-20T21:42:49.639Z,13.30
2023-05-20T21:47:07.438Z,13.98
2023-05-20T21:51:25.182Z,15.02
2023-05-20T21:55:44.285Z,13.30
2023-05-20T22:00:06.761Z,13.05
2023-05-20T22:04:28.524Z,12.32
2023-05-20T22:08:46.463Z,13.88
2023-05-20T22:13:06.293Z,13.60
2023-05-20T22:17:26.106Z,12.55
2023-05-20T22:21:50.347Z,12.48
2023-05-20T22:26:08.692Z,13.80
2023-05-20T22:30:27.351Z,12.50
2023-05-20T22:34:47.296Z,11.88
2023-05-20T22:39:07.124Z,13.33
2023-05-20T22:43:26.458Z,13.40
2023-05-20T22:47:46.892Z,13.05
2023-05-20T22:52:07.759Z,12.63
2023-05-20T22:56:26.911Z,14.33
2023-05-20T23:00:45.883Z,13.82
2023-05-20T23:05:08.908Z,12.13
2023-05-20T23:09:27.013Z,13.20
2023-05-20T23:13:45.106Z,13.27
2023-05-20T23:18:03.300Z,13.32
2023-05-20T23:22:22.690Z,14.23
2023-05-20T23:26:42.998Z,11.60
2023-05-20T23:31:00.315Z,13.35
2023-05-20T23:35:18.694Z,13.45
2023-05-20T23:39:38.171Z,14.10
2023-05-20T23:43:57.992Z,14.27
2023-05-20T23:48:17.902Z,14.15
2023-05-20T23:52:36.993Z,13.90
2023-05-20T23:56:56.577Z,13.25
